Time;durP1;ratioP1;P1;durP2;ratioP2;P2;SDS_P1;SDS_P2;PMS_P1;PMS_P2;Temp;Humidity;BMP_temperature;BMP_pressure;BME280_temperature;BME280_humidity;BME280_pressure;Samples;Min_cycle;Max_cycle;Signal;HPM_P1;HPM_P2
2022/02/08 00:00:09;;;;;;;;;;;7.40;96.40;;;;;;6129761;23;19912;-92
2022/02/08 00:02:46;;;;;;;;;;;;;;;;;;;;;
2022/02/08 00:05:23;;;;;;;;;;;7.40;96.60;;;;;;6128700;23;19984;-91
2022/02/08 00:11:14;;;;;;;;;;;7.40;96.70;;;;;;6102562;23;20351;-95
2022/02/08 00:14:02;;;;;;;;;;;7.50;96.80;;;;;;6135930;23;19908;-93
2022/02/08 00:16:38;;;;;;;;;;;7.50;96.90;;;;;;6193527;23;19982;-92
2022/02/08 00:19:39;;;;;;;;;;;;;;;;;;;;;
2022/02/08 00:22:38;;;;;;;;;;;;;;;;;;;;;
2022/02/08 00:25:31;;;;;;;;;;;7.50;97.10;;;;;;6214644;23;19990;-95
2022/02/08 00:28:05;;;;;;;;;;;7.50;97.20;;;;;;6219329;23;20318;-95
2022/02/08 00:30:31;;;;;;;;;;;7.50;97.50;;;;;;6221841;23;19952;-92
2022/02/08 00:33:02;;;;;;;;;;;7.50;97.50;;;;;;6220317;23;19948;-94
2022/02/08 00:36:01;;;;;;;;;;;;;;;;;;;;;
2022/02/08 00:38:41;;;;;;;;;;;;;;;;;;;;;
2022/02/08 00:41:24;;;;;;;;;;;;;;;;;;;;;
2022/02/08 00:44:05;;;;;;;;;;;7.60;98.10;;;;;;6224335;23;20289;-93
2022/02/08 00:49:29;;;;;;;;;;;7.50;98.50;;;;;;6194681;23;19911;-93
2022/02/08 00:52:17;;;;;;;;;;;;;;;;;;;;;
2022/02/08 00:58:04;;;;;;;;;;;7.50;98.60;;;;;;6216119;23;19919;-94
2022/02/08 01:06:40;;;;;;;;;;;7.60;98.80;;;;;;6215283;23;19908;-93
2022/02/08 01:09:34;;;;;;;;;;;7.60;98.80;;;;;;6194870;23;20230;-94
2022/02/08 01:12:07;;;;;;;;;;;;;;;;;;;;;
2022/02/08 01:14:40;;;;;;;;;;;7.60;99.00;;;;;;6250280;23;19995;-93
2022/02/08 01:17:34;;;;;;;;;;;;;;;;;;;;;
2022/02/08 01:20:29;;;;;;;;;;;;;;;;;;;;;
2022/02/08 01:28:58;;;;;;;;;;;7.60;99.60;;;;;;6211227;23;19908;-94
2022/02/08 01:31:36;;;;;;;;;;;7.60;99.90;;;;;;6200972;23;20229;-94
2022/02/08 01:34:27;;;;;;;;;;;7.60;99.90;;;;;;6222384;23;19903;-93
2022/02/08 01:37:20;;;;;;;;;;;;;;;;;;;;;
2022/02/08 01:48:29;;;;;;;;;;;7.60;99.90;;;;;;6249192;23;19911;-93
2022/02/08 01:51:00;;;;;;;;;;;7.60;99.90;;;;;;6222790;23;19935;-93
2022/02/08 01:56:24;;;;;;;;;;;7.60;99.90;;;;;;6232691;23;19908;-92
2022/02/08 01:59:03;;;;;;;;;;;7.60;99.90;;;;;;6199527;23;19920;-93
2022/02/08 02:01:42;;;;;;;;;;;7.70;99.90;;;;;;6223639;23;19930;-93
2022/02/08 02:04:53;;;;;;;;;;;7.70;99.90;;;;;;6223962;23;19986;-91
2022/02/08 02:07:26;;;;;;;;;;;7.70;99.90;;;;;;6246680;23;19903;-93
2022/02/08 02:09:52;;;;;;;;;;;7.70;99.90;;;;;;6200449;23;19910;-93
2022/02/08 02:12:48;;;;;;;;;;;;;;;;;;;;;
2022/02/08 02:18:35;;;;;;;;;;;7.80;99.90;;;;;;6236225;23;19912;-93
2022/02/08 02:24:19;;;;;;;;;;;;;;;;;;;;;
2022/02/08 02:27:15;;;;;;;;;;;7.80;99.90;;;;;;6274607;22;19907;-93
2022/02/08 02:29:53;;;;;;;;;;;;;;;;;;;;;
2022/02/08 02:32:37;;;;;;;;;;;;;;;;;;;;;
2022/02/08 02:35:30;;;;;;;;;;;7.80;99.90;;;;;;6250274;22;19914;-93
2022/02/08 02:41:01;;;;;;;;;;;;;;;;;;;;;
2022/02/08 02:43:47;;;;;;;;;;;7.90;99.90;;;;;;6254457;23;19926;-94
2022/02/08 02:46:25;;;;;;;;;;;;;;;;;;;;;
2022/02/08 02:49:02;;;;;;;;;;;8.00;99.90;;;;;;6225831;23;19975;-93
2022/02/08 02:51:43;;;;;;;;;;;;;;;;;;;;;
2022/02/08 02:54:32;;;;;;;;;;;8.00;99.90;;;;;;6250176;23;19951;-94
2022/02/08 02:57:00;;;;;;;;;;;8.00;99.90;;;;;;6207046;23;19904;-93
2022/02/08 02:59:59;;;;;;;;;;;;;;;;;;;;;
2022/02/08 03:02:41;;;;;;;;;;;8.00;99.90;;;;;;6240919;23;19978;-93
2022/02/08 03:23:20;;;;;;;;;;;8.20;99.90;;;;;;6229983;23;20198;-93
2022/02/08 03:26:20;;;;;;;;;;;8.20;99.90;;;;;;6201597;23;19908;-94
2022/02/08 03:29:02;;;;;;;;;;;8.20;99.90;;;;;;6216907;23;19910;-92
2022/02/08 03:31:38;;;;;;;;;;;;;;;;;;;;;
2022/02/08 03:34:32;;;;;;;;;;;8.20;99.90;;;;;;6251893;23;19991;-93
2022/02/08 03:40:18;;;;;;;;;;;;;;;;;;;;;
2022/02/08 03:43:13;;;;;;;;;;;8.30;99.90;;;;;;6252559;23;19903;-93
2022/02/08 03:46:23;;;;;;;;;;;8.40;99.90;;;;;;6253494;23;20265;-93
2022/02/08 03:48:53;;;;;;;;;;;8.40;99.90;;;;;;6250588;23;20336;-95
2022/02/08 03:51:36;;;;;;;;;;;;;;;;;;;;;
2022/02/08 03:54:19;;;;;;;;;;;8.50;99.90;;;;;;6252170;23;19986;-93
2022/02/08 03:57:04;;;;;;;;;;;;;;;;;;;;;
2022/02/08 03:59:37;;;;;;;;;;;8.50;99.90;;;;;;6252034;23;19991;-94
2022/02/08 04:05:40;;;;;;;;;;;8.60;99.90;;;;;;6276671;22;19923;-94
2022/02/08 04:08:12;;;;;;;;;;;8.60;99.90;;;;;;6250493;22;19892;-95
2022/02/08 04:10:45;;;;;;;;;;;8.70;99.90;;;;;;6214169;22;19915;-92
2022/02/08 04:33:30;;;;;;;;;;;8.80;99.90;;;;;;6258613;23;19910;-94
2022/02/08 04:36:46;;;;;;;;;;;8.90;99.90;;;;;;6230143;23;19904;-93
2022/02/08 04:39:38;;;;;;;;;;;8.90;99.90;;;;;;6255472;23;20342;-95
2022/02/08 04:42:11;;;;;;;;;;;8.90;99.90;;;;;;6256676;23;19994;-92
2022/02/08 04:45:09;;;;;;;;;;;8.90;99.90;;;;;;6205930;23;19923;-95
2022/02/08 04:47:44;;;;;;;;;;;8.90;99.90;;;;;;6228483;23;19904;-93
2022/02/08 04:50:15;;;;;;;;;;;9.00;99.90;;;;;;6203010;23;19918;-91
2022/02/08 04:52:45;;;;;;;;;;;9.00;99.90;;;;;;6224208;23;19904;-95
2022/02/08 04:58:16;;;;;;;;;;;9.00;99.90;;;;;;6261293;23;19910;-94
2022/02/08 05:43:44;;;;;;;;;;;9.00;99.90;;;;;;6284015;22;19947;-93
2022/02/08 05:49:23;;;;;;;;;;;;;;;;;;;;;
2022/02/08 05:52:19;;;;;;;;;;;;;;;;;;;;;
2022/02/08 05:55:17;;;;;;;;;;;9.00;99.90;;;;;;6244427;22;19952;-93
2022/02/08 06:00:36;;;;;;;;;;;9.00;99.90;;;;;;6238530;23;20238;-93
2022/02/08 06:03:24;;;;;;;;;;;9.10;99.90;;;;;;6222256;23;19954;-92
2022/02/08 06:06:19;;;;;;;;;;;9.10;99.90;;;;;;6201392;23;19919;-93
2022/02/08 06:08:55;;;;;;;;;;;9.10;99.90;;;;;;6209739;23;19911;-93
2022/02/08 06:11:48;;;;;;;;;;;;;;;;;;;;;
2022/02/08 06:14:27;;;;;;;;;;;9.00;99.90;;;;;;6248870;23;19978;-94
2022/02/08 06:17:09;;;;;;;;;;;9.10;99.90;;;;;;6247211;23;19908;-94
2022/02/08 06:20:11;;;;;;;;;;;;;;;;;;;;;
2022/02/08 06:31:22;;;;;;;;;;;9.10;99.90;;;;;;6223500;23;19903;-92
2022/02/08 06:50:09;;;;;;;;;;;;;;;;;;;;;
2022/02/08 06:53:06;;;;;;;;;;;;;;;;;;;;;
2022/02/08 06:55:55;;;;;;;;;;;8.90;99.90;;;;;;6138777;23;19982;-95
2022/02/08 07:04:56;;;;;;;;;;;;;;;;;;;;;
2022/02/08 07:07:50;;;;;;;;;;;8.90;99.90;;;;;;6254151;23;19946;-93
2022/02/08 07:10:41;;;;;;;;;;;8.90;99.90;;;;;;6218846;22;19896;-92
2022/02/08 07:16:28;;;;;;;;;;;;;;;;;;;;;
2022/02/08 07:22:26;;;;;;;;;;;8.90;99.90;;;;;;6189315;23;19911;-91
2022/02/08 07:25:36;;;;;;;;;;;8.90;99.90;;;;;;6222830;22;20029;-92
2022/02/08 07:31:33;;;;;;;;;;;;;;;;;;;;;
2022/02/08 07:38:02;;;;;;;;;;;;;;;;;;;;;
2022/02/08 07:43:39;;;;;;;;;;;9.00;99.90;;;;;;6228168;23;19903;-93
2022/02/08 07:49:01;;;;;;;;;;;9.00;99.90;;;;;;6235175;23;19958;-95
2022/02/08 07:51:58;;;;;;;;;;;9.00;99.90;;;;;;6227287;23;20302;-95
2022/02/08 07:54:35;;;;;;;;;;;9.10;99.90;;;;;;6219367;23;20326;-93
2022/02/08 07:57:11;;;;;;;;;;;9.10;99.90;;;;;;6224814;23;19911;-96
2022/02/08 07:59:39;;;;;;;;;;;9.10;99.90;;;;;;6199527;23;19959;-92
2022/02/08 08:05:33;;;;;;;;;;;;;;;;;;;;;
2022/02/08 08:08:22;;;;;;;;;;;9.10;99.90;;;;;;6187477;23;19948;-93
2022/02/08 08:14:24;;;;;;;;;;;9.10;99.90;;;;;;6229115;23;19938;-94
2022/02/08 08:20:22;;;;;;;;;;;9.10;99.90;;;;;;6159120;23;20009;-92
2022/02/08 08:23:18;;;;;;;;;;;;;;;;;;;;;
2022/02/08 08:26:21;;;;;;;;;;;9.20;99.90;;;;;;6243957;23;19951;-92
2022/02/08 08:32:15;;;;;;;;;;;;;;;;;;;;;
2022/02/08 08:38:03;;;;;;;;;;;9.30;99.90;;;;;;6232068;23;19903;-94
2022/02/08 08:41:04;;;;;;;;;;;9.30;99.90;;;;;;6224107;23;19916;-96
2022/02/08 08:55:09;;;;;;;;;;;9.40;99.90;;;;;;6198422;22;19920;-93
2022/02/08 08:58:30;;;;;;;;;;;;;;;;;;;;;
2022/02/08 09:17:19;;;;;;;;;;;9.80;99.90;;;;;;6074618;23;19912;-93
2022/02/08 09:23:43;;;;;;;;;;;9.80;99.90;;;;;;6111102;23;19904;-93
2022/02/08 09:29:07;;;;;;;;;;;9.90;99.90;;;;;;6173901;23;20034;-95
2022/02/08 09:32:00;;;;;;;;;;;9.90;99.90;;;;;;6223048;23;19904;-93
2022/02/08 09:34:41;;;;;;;;;;;10.00;99.90;;;;;;6264141;23;19904;-94
2022/02/08 09:37:45;;;;;;;;;;;10.00;99.90;;;;;;6238044;23;19928;-93
2022/02/08 09:40:22;;;;;;;;;;;;;;;;;;;;;
2022/02/08 09:42:53;;;;;;;;;;;10.10;99.90;;;;;;6251992;23;19939;-95
2022/02/08 09:45:35;;;;;;;;;;;;;;;;;;;;;
2022/02/08 09:48:33;;;;;;;;;;;10.20;99.90;;;;;;6249796;23;19999;-94
2022/02/08 09:51:05;;;;;;;;;;;10.20;99.90;;;;;;6214691;23;19904;-93
2022/02/08 09:54:21;;;;;;;;;;;;;;;;;;;;;
2022/02/08 09:57:06;;;;;;;;;;;;;;;;;;;;;
2022/02/08 09:59:55;;;;;;;;;;;10.30;99.90;;;;;;6249905;23;19999;-92
2022/02/08 10:05:28;;;;;;;;;;;10.40;99.90;;;;;;6227082;23;19919;-92
2022/02/08 10:08:14;;;;;;;;;;;10.40;99.90;;;;;;6222430;23;19911;-92
2022/02/08 10:10:59;;;;;;;;;;;10.40;99.90;;;;;;6223211;23;19950;-92
2022/02/08 10:22:48;;;;;;;;;;;10.60;99.90;;;;;;6124624;23;19938;-93
2022/02/08 10:26:02;;;;;;;;;;;10.60;99.90;;;;;;6071485;23;19910;-93
2022/02/08 10:40:31;;;;;;;;;;;;;;;;;;;;;
2022/02/08 10:43:34;;;;;;;;;;;10.70;99.90;;;;;;6249233;23;19978;-94
2022/02/08 10:46:19;;;;;;;;;;;10.80;99.90;;;;;;6198271;23;19904;-95
2022/02/08 10:49:37;;;;;;;;;;;;;;;;;;;;;
2022/02/08 10:52:31;;;;;;;;;;;;;;;;;;;;;
2022/02/08 10:55:14;;;;;;;;;;;10.80;99.90;;;;;;6246535;23;19978;-93
2022/02/08 11:04:24;;;;;;;;;;;;;;;;;;;;;
2022/02/08 11:07:12;;;;;;;;;;;10.80;99.90;;;;;;6249599;23;20333;-93
2022/02/08 11:16:42;;;;;;;;;;;;;;;;;;;;;
2022/02/08 11:28:31;;;;;;;;;;;10.90;99.90;;;;;;6064492;23;19905;-94
2022/02/08 11:55:50;;;;;;;;;;;11.20;99.80;;;;;;6055579;23;19965;-93
2022/02/08 12:55:53;;;;;;;;;;;11.60;98.30;;;;;;6072424;23;20409;-94
2022/02/08 13:02:08;;;;;;;;;;;;;;;;;;;;;
2022/02/08 14:18:35;;;;;;;;;;;;;;;;;;;;;
2022/02/08 15:09:32;;;;;;;;;;;11.60;97.00;;;;;;6241989;23;19911;-96
2022/02/08 15:12:32;;;;;;;;;;;;;;;;;;;;;
2022/02/08 15:18:31;;;;;;;;;;;;;;;;;;;;;
2022/02/08 15:24:47;;;;;;;;;;;;;;;;;;;;;
2022/02/08 15:27:37;;;;;;;;;;;;;;;;;;;;;
2022/02/08 15:52:54;;;;;;;;;;;;;;;;;;;;;
2022/02/08 16:00:18;;;;;;;;;;;;;;;;;;;;;
2022/02/08 16:08:24;;;;;;;;;;;;;;;;;;;;;
2022/02/08 16:11:06;;;;;;;;;;;11.30;97.10;;;;;;6086584;23;19909;-92
2022/02/08 16:58:41;;;;;;;;;;;11.10;97.20;;;;;;6245224;23;19949;-94
2022/02/08 17:01:26;;;;;;;;;;;;;;;;;;;;;
2022/02/08 17:04:43;;;;;;;;;;;11.10;97.20;;;;;;6244746;23;19903;-93
2022/02/08 17:10:04;;;;;;;;;;;11.10;97.20;;;;;;6203394;23;19905;-93
2022/02/08 17:48:01;;;;;;;;;;;11.00;97.50;;;;;;6219075;23;19926;-94
2022/02/08 17:51:00;;;;;;;;;;;;;;;;;;;;;
2022/02/08 17:53:47;;;;;;;;;;;;;;;;;;;;;
2022/02/08 17:56:24;;;;;;;;;;;11.00;97.50;;;;;;6218714;23;20006;-94
2022/02/08 17:59:07;;;;;;;;;;;;;;;;;;;;;
2022/02/08 18:08:18;;;;;;;;;;;;;;;;;;;;;
2022/02/08 18:11:39;;;;;;;;;;;;;;;;;;;;;
2022/02/08 18:14:39;;;;;;;;;;;11.00;97.40;;;;;;6151081;23;20386;-94
2022/02/08 19:26:23;;;;;;;;;;;;;;;;;;;;;
2022/02/08 19:36:10;;;;;;;;;;;;;;;;;;;;;
2022/02/08 19:45:35;;;;;;;;;;;;;;;;;;;;;
2022/02/08 19:51:33;;;;;;;;;;;;;;;;;;;;;
2022/02/08 20:00:55;;;;;;;;;;;;;;;;;;;;;
2022/02/08 20:03:59;;;;;;;;;;;10.70;98.10;;;;;;6055468;23;19906;-95
2022/02/08 20:09:32;;;;;;;;;;;10.60;98.10;;;;;;6036051;23;19929;-94
2022/02/08 20:12:07;;;;;;;;;;;10.60;98.10;;;;;;6095938;23;19905;-93
2022/02/08 20:14:37;;;;;;;;;;;10.60;98.10;;;;;;6124834;23;19894;-93
2022/02/08 20:17:16;;;;;;;;;;;10.60;98.10;;;;;;6124353;23;19894;-95
2022/02/08 20:19:53;;;;;;;;;;;;;;;;;;;;;
2022/02/08 20:22:38;;;;;;;;;;;10.60;98.10;;;;;;6124971;23;19894;-94
2022/02/08 20:25:09;;;;;;;;;;;10.60;98.10;;;;;;6179638;23;19961;-94
2022/02/08 20:28:06;;;;;;;;;;;10.60;98.10;;;;;;6214196;23;19904;-94
2022/02/08 20:30:34;;;;;;;;;;;10.60;98.10;;;;;;6194837;23;20310;-93
2022/02/08 20:33:04;;;;;;;;;;;10.60;98.10;;;;;;6201139;23;19908;-92
2022/02/08 20:35:42;;;;;;;;;;;10.60;98.10;;;;;;6200065;23;19904;-92
2022/02/08 20:38:07;;;;;;;;;;;10.60;98.10;;;;;;6224637;23;19904;-94
2022/02/08 20:40:39;;;;;;;;;;;10.60;98.10;;;;;;6199147;23;19955;-92
2022/02/08 20:43:09;;;;;;;;;;;10.60;98.10;;;;;;6200608;23;19904;-92
2022/02/08 20:45:48;;;;;;;;;;;10.50;98.10;;;;;;6200521;23;19904;-93
2022/02/08 20:48:41;;;;;;;;;;;10.60;98.10;;;;;;6221770;23;19924;-92
2022/02/08 20:51:12;;;;;;;;;;;10.60;98.10;;;;;;6228393;23;19908;-91
2022/02/08 20:56:26;;;;;;;;;;;10.50;98.10;;;;;;6227115;23;19904;-92
2022/02/08 20:59:11;;;;;;;;;;;10.50;98.10;;;;;;6222754;23;19920;-93
2022/02/08 21:01:37;;;;;;;;;;;10.50;98.00;;;;;;6225316;23;20335;-93
2022/02/08 21:07:29;;;;;;;;;;;10.50;98.10;;;;;;6227108;23;19915;-93
2022/02/08 21:16:13;;;;;;;;;;;;;;;;;;;;;
2022/02/08 21:19:05;;;;;;;;;;;10.40;98.00;;;;;;6203229;23;19935;-93
2022/02/08 21:21:31;;;;;;;;;;;10.40;98.00;;;;;;6201021;23;19904;-92
2022/02/08 21:23:57;;;;;;;;;;;10.40;98.00;;;;;;6202595;23;19986;-92
2022/02/08 21:26:33;;;;;;;;;;;10.40;97.90;;;;;;6229499;23;19904;-92
2022/02/08 21:55:12;;;;;;;;;;;10.40;98.10;;;;;;6244889;23;19916;-90
2022/02/08 21:57:48;;;;;;;;;;;10.40;98.10;;;;;;6218798;23;19898;-93
2022/02/08 22:00:32;;;;;;;;;;;10.40;98.20;;;;;;6217738;23;19916;-94
2022/02/08 22:03:33;;;;;;;;;;;10.40;98.20;;;;;;6194179;23;19973;-92
2022/02/08 22:09:09;;;;;;;;;;;10.40;98.20;;;;;;6237537;23;19904;-92
2022/02/08 22:29:02;;;;;;;;;;;10.40;98.20;;;;;;6224560;23;19911;-91
2022/02/08 22:35:04;;;;;;;;;;;;;;;;;;;;;
2022/02/08 22:37:46;;;;;;;;;;;10.40;98.10;;;;;;6226860;23;19923;-91
2022/02/08 22:40:38;;;;;;;;;;;10.40;98.10;;;;;;6198163;23;20297;-92
2022/02/08 22:43:12;;;;;;;;;;;10.50;98.20;;;;;;6197292;23;19910;-94
2022/02/08 22:46:14;;;;;;;;;;;10.50;98.20;;;;;;6195576;23;19919;-92
2022/02/08 22:48:48;;;;;;;;;;;10.40;98.20;;;;;;6176225;23;19915;-92
2022/02/08 22:51:23;;;;;;;;;;;10.40;98.20;;;;;;6185341;23;19916;-93
2022/02/08 22:53:58;;;;;;;;;;;10.40;98.20;;;;;;6222367;23;20324;-93
2022/02/08 22:56:45;;;;;;;;;;;;;;;;;;;;;
2022/02/08 22:59:26;;;;;;;;;;;10.40;98.20;;;;;;6202460;23;19947;-93
2022/02/08 23:02:02;;;;;;;;;;;;;;;;;;;;;
2022/02/08 23:04:44;;;;;;;;;;;10.40;98.30;;;;;;6223808;23;19927;-93
2022/02/08 23:07:25;;;;;;;;;;;;;;;;;;;;;
2022/02/08 23:10:11;;;;;;;;;;;10.40;98.30;;;;;;6222988;23;19946;-91
2022/02/08 23:13:13;;;;;;;;;;;;;;;;;;;;;
2022/02/08 23:38:45;;;;;;;;;;;10.30;98.40;;;;;;6241048;23;19995;-93
2022/02/08 23:41:16;;;;;;;;;;;10.30;98.40;;;;;;6201496;23;19943;-92
2022/02/08 23:43:56;;;;;;;;;;;;;;;;;;;;;
2022/02/08 23:46:28;;;;;;;;;;;10.40;98.40;;;;;;6227075;23;19931;-92
2022/02/08 23:49:18;;;;;;;;;;;10.30;98.40;;;;;;6198475;23;19904;-94
2022/02/08 23:52:16;;;;;;;;;;;10.40;98.40;;;;;;6186063;23;19916;-92
2022/02/08 23:54:46;;;;;;;;;;;10.40;98.40;;;;;;6196319;23;19948;-93
2022/02/08 23:57:27;;;;;;;;;;;10.30;98.40;;;;;;6169491;23;19909;-93
